Time;durP1;ratioP1;P1;durP2;ratioP2;P2;SDS_P1;SDS_P2;PMS_P1;PMS_P2;Temp;Humidity;BMP_temperature;BMP_pressure;BME280_temperature;BME280_humidity;BME280_pressure;Samples;Min_cycle;Max_cycle;Signal;HPM_P1;HPM_P2
2021/10/21 00:02:14;;;;;;;25.88;19.75;;;307.70;2304.00;;;;;;5054011;28;20045;-85
2021/10/21 00:04:40;;;;;;;27.48;19.40;;;307.70;2304.00;;;;;;5053663;28;20060;-84
2021/10/21 00:07:06;;;;;;;32.35;20.52;;;307.70;2304.00;;;;;;5068410;28;20429;-83
2021/10/21 00:09:31;;;;;;;29.50;19.88;;;307.70;2304.00;;;;;;5062499;28;20063;-84
2021/10/21 00:11:58;;;;;;;28.15;20.17;;;307.70;2304.00;;;;;;5053488;28;20096;-83
2021/10/21 00:14:23;;;;;;;24.75;17.95;;;307.70;2304.00;;;;;;5058419;28;20021;-84
2021/10/21 00:16:49;;;;;;;29.88;20.60;;;307.70;2304.00;;;;;;5052007;28;20044;-84
2021/10/21 00:19:15;;;;;;;26.40;20.30;;;307.70;2304.00;;;;;;5052525;28;20035;-83
2021/10/21 00:21:41;;;;;;;31.20;23.02;;;307.70;2304.00;;;;;;5069524;28;20399;-84
2021/10/21 00:24:07;;;;;;;29.77;22.23;;;307.60;2304.00;;;;;;5054160;28;20035;-83
2021/10/21 00:26:33;;;;;;;30.33;22.15;;;307.60;2304.00;;;;;;5054385;28;20025;-77
2021/10/21 00:28:58;;;;;;;27.40;20.70;;;307.60;2304.00;;;;;;5054519;28;20079;-78
2021/10/21 00:31:24;;;;;;;29.55;20.27;;;307.60;2304.00;;;;;;5052587;28;20472;-82
2021/10/21 00:33:50;;;;;;;30.58;21.45;;;307.60;2304.00;;;;;;5050634;28;20060;-83
2021/10/21 00:36:17;;;;;;;29.10;22.65;;;307.60;2304.00;;;;;;5067804;28;20040;-82
2021/10/21 00:38:42;;;;;;;26.40;20.80;;;307.60;2304.00;;;;;;5050646;28;20037;-83
2021/10/21 00:41:08;;;;;;;30.38;20.85;;;307.60;2304.00;;;;;;5064235;28;20546;-82
2021/10/21 00:43:38;;;;;;;26.95;20.48;;;307.70;2304.00;;;;;;5052130;28;20033;-82
2021/10/21 00:46:06;;;;;;;32.10;21.23;;;307.60;2304.00;;;;;;5049697;28;20037;-83
2021/10/21 00:48:32;;;;;;;30.92;20.55;;;307.60;2304.00;;;;;;5069116;28;20487;-82
2021/10/21 00:50:58;;;;;;;31.25;20.85;;;307.60;2304.00;;;;;;5058283;28;20025;-85
2021/10/21 00:53:25;;;;;;;34.78;22.23;;;307.60;2304.00;;;;;;5055992;28;20025;-85
2021/10/21 00:55:50;;;;;;;29.98;20.38;;;307.60;2304.00;;;;;;5077143;28;20082;-79
2021/10/21 00:58:16;;;;;;;33.45;22.60;;;307.50;2304.00;;;;;;5050830;28;21520;-85
2021/10/21 01:00:42;;;;;;;32.30;19.15;;;307.50;2304.00;;;;;;5052553;28;20056;-85
2021/10/21 01:03:08;;;;;;;27.88;20.00;;;307.50;2304.00;;;;;;5052349;28;20032;-85
2021/10/21 01:05:33;;;;;;;34.40;22.38;;;307.40;2304.00;;;;;;5067054;28;20051;-85
2021/10/21 01:08:00;;;;;;;31.40;20.75;;;307.40;2304.00;;;;;;5065315;28;20519;-86
2021/10/21 01:10:25;;;;;;;27.00;19.25;;;307.40;2304.00;;;;;;5052933;28;20025;-88
2021/10/21 01:12:51;;;;;;;25.70;18.63;;;307.40;2304.00;;;;;;5056146;28;20025;-85
2021/10/21 01:15:18;;;;;;;33.08;20.67;;;307.40;2304.00;;;;;;5055298;28;20127;-86
2021/10/21 01:17:45;;;;;;;29.52;20.33;;;307.40;2304.00;;;;;;5067938;28;20487;-85
2021/10/21 01:20:14;;;;;;;28.05;20.85;;;307.40;2304.00;;;;;;5052570;28;20040;-89
2021/10/21 01:22:41;;;;;;;29.00;20.90;;;307.40;2304.00;;;;;;5066169;28;20550;-89
2021/10/21 01:25:08;;;;;;;28.38;19.50;;;307.40;2304.00;;;;;;5052948;28;20494;-91
2021/10/21 01:27:33;;;;;;;27.58;19.98;;;307.40;2304.00;;;;;;5058970;28;20032;-90
2021/10/21 01:29:59;;;;;;;28.88;19.45;;;307.40;2304.00;;;;;;5060161;28;20066;-91
2021/10/21 01:32:27;;;;;;;31.52;21.50;;;307.30;2304.00;;;;;;5058588;28;20108;-91
2021/10/21 01:34:53;;;;;;;29.52;20.05;;;307.30;2304.00;;;;;;5056228;28;20497;-90
2021/10/21 01:37:19;;;;;;;34.35;21.42;;;307.30;2304.00;;;;;;5066777;28;20493;-90
2021/10/21 01:39:45;;;;;;;25.90;20.13;;;307.30;2304.00;;;;;;5069576;28;20028;-88
2021/10/21 01:42:11;;;;;;;26.90;19.10;;;307.30;2304.00;;;;;;5072530;28;20075;-88
2021/10/21 01:44:37;;;;;;;28.08;20.70;;;307.30;2304.00;;;;;;5067381;28;20056;-88
2021/10/21 01:47:03;;;;;;;27.20;18.88;;;307.30;2304.00;;;;;;5082272;28;20036;-88
2021/10/21 01:49:29;;;;;;;27.95;19.58;;;307.30;2304.00;;;;;;5061931;28;20032;-88
2021/10/21 01:51:55;;;;;;;26.98;20.67;;;307.30;2304.00;;;;;;5066068;28;20028;-85
2021/10/21 01:54:21;;;;;;;31.02;20.38;;;307.30;2304.00;;;;;;5083304;28;20025;-85
2021/10/21 01:56:47;;;;;;;26.45;20.05;;;307.30;2304.00;;;;;;5054277;28;20021;-87
2021/10/21 01:59:12;;;;;;;27.05;19.48;;;307.30;2304.00;;;;;;5063542;28;20062;-87
2021/10/21 02:01:38;;;;;;;27.15;20.15;;;307.30;2304.00;;;;;;5060316;28;20086;-87
2021/10/21 02:04:05;;;;;;;30.15;20.63;;;307.30;2304.00;;;;;;5092294;28;20236;-87
2021/10/21 02:06:31;;;;;;;27.77;19.55;;;307.30;2304.00;;;;;;5073439;28;20043;-87
2021/10/21 02:08:57;;;;;;;32.95;20.67;;;307.30;2304.00;;;;;;5063314;28;20380;-89
2021/10/21 02:11:22;;;;;;;29.30;20.90;;;307.30;2304.00;;;;;;5058208;28;20036;-89
2021/10/21 02:13:48;;;;;;;30.00;19.88;;;307.20;2304.00;;;;;;5073471;28;20017;-90
2021/10/21 02:16:15;;;;;;;31.55;21.13;;;307.20;2304.00;;;;;;5049445;28;20080;-89
2021/10/21 02:18:40;;;;;;;30.33;20.23;;;307.20;2304.00;;;;;;5059824;28;20036;-89
2021/10/21 02:21:06;;;;;;;30.27;21.20;;;307.20;2304.00;;;;;;5059412;28;20554;-90
2021/10/21 02:23:32;;;;;;;33.90;21.17;;;307.20;2304.00;;;;;;5069401;28;20494;-88
2021/10/21 02:25:58;;;;;;;29.65;20.05;;;307.20;2304.00;;;;;;5057392;28;20024;-90
2021/10/21 02:28:24;;;;;;;32.60;21.15;;;307.20;2304.00;;;;;;5066424;28;20104;-90
2021/10/21 02:30:50;;;;;;;26.60;20.25;;;307.20;2304.00;;;;;;5064847;28;20032;-89
2021/10/21 02:33:16;;;;;;;25.15;18.45;;;282.50;2278.40;;;;;;5055103;28;20025;-90
2021/10/21 02:35:43;;;;;;;24.40;18.65;;;282.40;2278.40;;;;;;5054903;28;20052;-90
2021/10/21 02:38:12;;;;;;;27.10;19.58;;;282.50;2278.40;;;;;;5054372;28;20044;-90
2021/10/21 02:40:39;;;;;;;31.10;19.90;;;282.40;2278.40;;;;;;5055109;28;20017;-92
2021/10/21 02:43:05;;;;;;;27.65;19.88;;;282.40;2278.40;;;;;;5056606;28;20025;-90
2021/10/21 02:45:32;;;;;;;25.58;19.65;;;282.40;2278.40;;;;;;5058913;28;20115;-89
2021/10/21 02:47:58;;;;;;;30.75;20.88;;;282.40;2278.40;;;;;;5076282;28;20021;-89
2021/10/21 02:50:24;;;;;;;26.27;20.63;;;282.30;2278.40;;;;;;5062111;28;20471;-90
2021/10/21 02:52:50;;;;;;;29.70;19.77;;;282.30;2278.40;;;;;;5059035;28;20027;-89
2021/10/21 02:55:16;;;;;;;28.95;20.95;;;282.30;2278.40;;;;;;5060245;28;20024;-89
2021/10/21 02:57:42;;;;;;;27.48;19.00;;;282.40;2278.40;;;;;;5059513;28;20104;-90
2021/10/21 03:00:09;;;;;;;30.52;19.33;;;282.30;2278.40;;;;;;5058656;28;20047;-90
2021/10/21 03:02:36;;;;;;;30.98;22.25;;;282.30;2278.40;;;;;;5065174;28;20078;-90
2021/10/21 03:05:02;;;;;;;29.73;21.83;;;282.30;2278.40;;;;;;5058728;28;20024;-89
2021/10/21 03:07:27;;;;;;;27.70;21.05;;;282.30;2278.40;;;;;;5062383;28;20054;-90
2021/10/21 03:09:53;;;;;;;26.75;20.45;;;282.30;2278.40;;;;;;5058746;28;20024;-88
2021/10/21 03:12:19;;;;;;;32.65;21.95;;;282.30;2278.40;;;;;;5058740;28;20017;-89
2021/10/21 03:14:45;;;;;;;29.80;21.08;;;282.30;2278.40;;;;;;5058668;28;20170;-89
2021/10/21 03:17:12;;;;;;;30.92;21.70;;;282.30;2278.40;;;;;;5072522;28;20052;-90
2021/10/21 03:19:38;;;;;;;33.70;21.75;;;282.30;2278.40;;;;;;5065355;28;20048;-90
2021/10/21 03:22:04;;;;;;;32.58;22.45;;;282.30;2278.40;;;;;;5058713;28;20028;-91
2021/10/21 03:24:30;;;;;;;36.33;23.05;;;282.30;2278.40;;;;;;5063242;28;20028;-90
2021/10/21 03:26:55;;;;;;;35.58;22.52;;;282.30;2278.40;;;;;;5057988;28;20036;-90
2021/10/21 03:29:21;;;;;;;32.28;23.00;;;282.30;2278.40;;;;;;5058855;28;20456;-91
2021/10/21 03:31:47;;;;;;;33.08;22.25;;;282.30;2278.40;;;;;;5058500;28;20028;-90
2021/10/21 03:34:13;;;;;;;33.08;21.88;;;282.30;2278.40;;;;;;5069328;28;20070;-90
2021/10/21 03:36:39;;;;;;;31.83;21.85;;;282.20;2278.40;;;;;;5058938;28;20032;-89
2021/10/21 03:39:05;;;;;;;31.83;20.23;;;282.30;2278.40;;;;;;5076067;28;20527;-88
2021/10/21 03:41:30;;;;;;;29.88;21.25;;;282.30;2278.40;;;;;;5057817;28;20020;-88
2021/10/21 03:43:56;;;;;;;34.55;22.88;;;282.30;2278.40;;;;;;5057906;28;20120;-88
2021/10/21 03:46:25;;;;;;;34.20;22.77;;;282.20;2278.40;;;;;;5075764;28;20028;-89
2021/10/21 03:48:50;;;;;;;36.53;22.55;;;282.30;2278.40;;;;;;5062595;28;20418;-89
2021/10/21 03:51:16;;;;;;;29.73;21.45;;;282.30;2278.40;;;;;;5057564;28;20028;-86
2021/10/21 03:53:42;;;;;;;31.17;21.48;;;282.30;2278.40;;;;;;5074131;28;20025;-83
2021/10/21 03:56:09;;;;;;;27.63;18.83;;;282.30;2278.40;;;;;;5056809;28;20040;-85
2021/10/21 03:58:38;;;;;;;29.52;20.65;;;282.30;2278.40;;;;;;5087195;28;20024;-84
2021/10/21 04:01:04;;;;;;;25.98;19.85;;;282.20;2278.40;;;;;;5061064;28;20024;-85
2021/10/21 04:03:30;;;;;;;29.45;19.48;;;282.30;2278.40;;;;;;5074912;28;20166;-86
2021/10/21 04:05:55;;;;;;;33.38;22.63;;;282.20;2278.40;;;;;;5075434;28;20539;-85
2021/10/21 04:08:21;;;;;;;28.45;19.95;;;282.30;2278.40;;;;;;5075122;28;20025;-86
2021/10/21 04:10:47;;;;;;;29.58;23.23;;;282.30;2278.40;;;;;;5074577;28;20025;-87
2021/10/21 04:13:14;;;;;;;30.50;21.95;;;282.30;2278.40;;;;;;5056968;28;20019;-86
2021/10/21 04:15:41;;;;;;;32.85;20.98;;;282.30;2278.40;;;;;;5066761;28;20044;-86
2021/10/21 04:18:07;;;;;;;28.27;20.10;;;282.30;2278.40;;;;;;5056681;28;20369;-86
2021/10/21 04:20:33;;;;;;;29.30;20.42;;;282.30;2278.40;;;;;;5074335;28;20054;-86
2021/10/21 04:22:58;;;;;;;31.00;20.65;;;282.30;2278.40;;;;;;5070777;28;20043;-86
2021/10/21 04:25:24;;;;;;;29.98;20.48;;;282.30;2278.40;;;;;;5082706;28;20024;-85
2021/10/21 04:27:50;;;;;;;27.08;19.67;;;282.30;2278.40;;;;;;5066997;28;20028;-86
2021/10/21 04:30:16;;;;;;;32.25;20.80;;;282.40;2278.40;;;;;;5076194;28;20558;-85
2021/10/21 04:32:42;;;;;;;30.42;20.50;;;282.40;2278.40;;;;;;5068771;28;20455;-87
2021/10/21 04:35:09;;;;;;;27.30;19.90;;;282.30;2278.40;;;;;;5058182;28;20033;-87
2021/10/21 04:37:35;;;;;;;32.05;22.20;;;307.20;2304.00;;;;;;5074176;28;20470;-87
2021/10/21 04:40:01;;;;;;;29.63;21.08;;;282.30;2278.40;;;;;;5059139;28;20039;-85
2021/10/21 04:42:27;;;;;;;29.70;21.83;;;282.30;2278.40;;;;;;5057340;28;20024;-86
2021/10/21 04:44:53;;;;;;;29.92;19.88;;;282.30;2278.40;;;;;;5071790;28;20032;-79
2021/10/21 04:47:19;;;;;;;30.38;20.73;;;282.30;2278.40;;;;;;5077613;28;20039;-79
2021/10/21 04:49:45;;;;;;;33.13;21.70;;;282.30;2278.40;;;;;;5080870;28;20033;-80
2021/10/21 04:52:11;;;;;;;28.58;21.35;;;282.30;2278.40;;;;;;5058413;28;20025;-85
2021/10/21 04:54:38;;;;;;;29.45;20.63;;;282.30;2278.40;;;;;;5056651;28;20119;-86
2021/10/21 04:57:04;;;;;;;28.13;19.65;;;282.30;2278.40;;;;;;5056520;28;20024;-86
2021/10/21 04:59:29;;;;;;;30.08;20.52;;;282.30;2278.40;;;;;;5056698;28;20548;-87
2021/10/21 05:01:55;;;;;;;30.10;20.85;;;282.30;2278.40;;;;;;5060337;28;20538;-86
2021/10/21 05:04:21;;;;;;;32.10;21.63;;;282.20;2278.40;;;;;;5090310;28;20063;-87
2021/10/21 05:06:47;;;;;;;28.40;20.27;;;282.20;2278.40;;;;;;5066564;28;20028;-87
2021/10/21 05:09:13;;;;;;;31.88;22.63;;;282.20;2278.40;;;;;;5056212;28;20119;-86
2021/10/21 05:11:38;;;;;;;29.58;21.08;;;282.20;2278.40;;;;;;5054151;28;20033;-88
2021/10/21 05:14:04;;;;;;;32.97;21.45;;;282.20;2278.40;;;;;;5058142;28;20034;-87
2021/10/21 05:16:30;;;;;;;29.23;20.83;;;282.20;2278.40;;;;;;5064298;28;20044;-87
2021/10/21 05:18:55;;;;;;;29.88;22.25;;;282.20;2278.40;;;;;;5062248;28;20084;-87
2021/10/21 05:21:21;;;;;;;29.95;21.10;;;282.20;2278.40;;;;;;5057915;28;20024;-88
2021/10/21 05:23:47;;;;;;;33.80;21.98;;;282.20;2278.40;;;;;;5059458;28;20032;-88
2021/10/21 05:26:12;;;;;;;30.35;21.02;;;282.30;2278.40;;;;;;5073832;28;20487;-87
2021/10/21 05:28:38;;;;;;;30.52;20.58;;;282.30;2278.40;;;;;;5073499;28;20027;-87
2021/10/21 05:31:04;;;;;;;31.15;22.13;;;282.30;2278.40;;;;;;5074690;28;20026;-85
2021/10/21 05:33:35;;;;;;;33.03;19.67;;;282.40;2278.40;;;;;;5055578;28;20021;-84
2021/10/21 05:36:05;;;;;;;29.58;21.48;;;282.40;2278.40;;;;;;5054839;28;20033;-84
2021/10/21 05:38:31;;;;;;;33.65;22.15;;;282.50;2278.40;;;;;;5068039;28;20028;-84
2021/10/21 05:40:57;;;;;;;31.73;21.88;;;282.50;2278.40;;;;;;5054437;28;20364;-85
2021/10/21 05:43:22;;;;;;;25.35;20.48;;;282.50;2278.40;;;;;;5059774;28;20480;-85
2021/10/21 05:45:49;;;;;;;32.83;20.60;;;307.20;2304.00;;;;;;5071460;28;20028;-84
2021/10/21 05:48:16;;;;;;;31.75;19.52;;;307.20;2304.00;;;;;;5053849;28;20062;-84
2021/10/21 05:50:43;;;;;;;31.90;19.70;;;307.20;2304.00;;;;;;5049718;28;20454;-85
2021/10/21 05:53:08;;;;;;;30.05;21.67;;;307.20;2304.00;;;;;;5054069;28;20161;-83
2021/10/21 05:55:34;;;;;;;29.10;20.35;;;307.30;2304.00;;;;;;5053716;28;20126;-83
2021/10/21 05:58:00;;;;;;;32.58;20.73;;;307.40;2304.00;;;;;;5058854;28;20032;-81
2021/10/21 06:00:26;;;;;;;32.83;21.55;;;307.30;2304.00;;;;;;5079507;28;20037;-86
2021/10/21 06:02:52;;;;;;;27.73;21.20;;;307.30;2304.00;;;;;;5058263;28;20029;-87
2021/10/21 06:05:22;;;;;;;33.50;23.02;;;307.40;2304.00;;;;;;5065241;28;20466;-85
2021/10/21 06:07:48;;;;;;;31.58;22.10;;;307.40;2304.00;;;;;;5058001;28;20433;-86
2021/10/21 06:10:14;;;;;;;30.98;21.52;;;307.50;2304.00;;;;;;5058161;28;20074;-85
2021/10/21 06:12:40;;;;;;;35.75;21.20;;;307.60;2304.00;;;;;;5047568;28;20029;-84
2021/10/21 06:15:07;;;;;;;32.75;21.65;;;307.60;2304.00;;;;;;5053712;28;20044;-83
2021/10/21 06:17:33;;;;;;;30.88;20.08;;;307.60;2304.00;;;;;;5081970;28;20056;-84
2021/10/21 06:19:59;;;;;;;32.28;20.25;;;307.70;2304.00;;;;;;5073184;28;20086;-83
2021/10/21 06:22:25;;;;;;;30.05;19.52;;;307.80;2304.00;;;;;;5055457;28;20028;-84
2021/10/21 06:24:51;;;;;;;28.45;18.48;;;307.80;2304.00;;;;;;5054761;28;20028;-84
2021/10/21 06:27:17;;;;;;;29.73;21.30;;;307.90;2304.00;;;;;;5056919;28;20803;-84
2021/10/21 06:29:42;;;;;;;28.75;20.38;;;308.00;2304.00;;;;;;5051675;28;20444;-84
2021/10/21 06:32:09;;;;;;;29.25;18.38;;;308.10;2304.00;;;;;;5054258;28;20027;-82
2021/10/21 06:34:36;;;;;;;25.42;19.92;;;332.80;2329.60;;;;;;5072952;28;20013;-82
2021/10/21 06:37:02;;;;;;;27.02;19.17;;;332.90;2329.60;;;;;;5054275;28;20039;-84
2021/10/21 06:39:27;;;;;;;27.75;19.85;;;333.00;2329.60;;;;;;5055088;28;20021;-84
2021/10/21 06:41:53;;;;;;;28.20;18.60;;;333.10;2329.60;;;;;;5053258;28;20127;-83
2021/10/21 06:44:19;;;;;;;28.50;19.33;;;333.20;2329.60;;;;;;5053690;28;20170;-83
2021/10/21 06:46:47;;;;;;;29.23;20.65;;;333.30;2329.60;;;;;;5071757;28;20024;-83
2021/10/21 06:49:12;;;;;;;26.83;19.15;;;333.40;2329.60;;;;;;5052869;28;20078;-85
2021/10/21 06:51:38;;;;;;;27.23;19.15;;;333.50;2329.60;;;;;;5052324;28;20024;-79
2021/10/21 06:54:04;;;;;;;29.70;19.52;;;333.60;2329.60;;;;;;5069534;28;20078;-80
2021/10/21 06:56:30;;;;;;;34.38;19.67;;;333.60;2329.60;;;;;;5054978;28;20025;-83
2021/10/21 06:58:57;;;;;;;28.65;18.77;;;333.70;2329.60;;;;;;5056224;28;20025;-83
2021/10/21 07:01:22;;;;;;;24.98;17.80;;;358.40;2329.60;;;;;;5052292;28;20124;-83
2021/10/21 07:03:48;;;;;;;32.35;20.95;;;358.40;2329.60;;;;;;5071906;28;20609;-84
2021/10/21 07:06:14;;;;;;;32.97;18.42;;;358.50;2329.60;;;;;;5054363;28;20024;-83
2021/10/21 07:08:40;;;;;;;26.40;18.35;;;358.50;2329.60;;;;;;5053749;28;20459;-83
2021/10/21 07:11:06;;;;;;;26.40;18.13;;;358.60;2329.60;;;;;;5059457;28;20025;-83
2021/10/21 07:13:32;;;;;;;26.25;18.38;;;358.60;2329.60;;;;;;5053657;28;20025;-84
2021/10/21 07:15:58;;;;;;;30.23;17.83;;;358.70;2329.60;;;;;;5054772;28;20075;-82
2021/10/21 07:18:23;;;;;;;27.05;19.20;;;358.80;2329.60;;;;;;5056785;28;20143;-84
2021/10/21 07:20:50;;;;;;;31.35;20.70;;;358.90;2329.60;;;;;;5057521;28;20707;-84
2021/10/21 07:23:17;;;;;;;38.50;23.08;;;359.10;2329.60;;;;;;5071560;28;20082;-84
2021/10/21 07:25:43;;;;;;;31.88;19.88;;;359.30;2329.60;;;;;;5057106;28;20472;-84
2021/10/21 07:28:09;;;;;;;21.63;16.70;;;384.00;2329.60;;;;;;5071825;28;20078;-84
2021/10/21 07:30:34;;;;;;;22.40;17.05;;;384.30;2329.60;;;;;;5073969;28;20032;-83
2021/10/21 07:33:00;;;;;;;29.30;17.38;;;384.50;2329.60;;;;;;5055995;28;20031;-83
2021/10/21 07:35:31;;;;;;;25.08;17.08;;;384.80;2329.60;;;;;;5055341;28;20023;-83
2021/10/21 07:38:01;;;;;;;22.92;15.88;;;409.70;2355.20;;;;;;5055821;28;20479;-83
2021/10/21 07:40:27;;;;;;;23.70;14.95;;;410.10;2355.20;;;;;;5055736;28;20032;-83
2021/10/21 07:42:53;;;;;;;24.00;17.05;;;410.30;2355.20;;;;;;5055898;28;20043;-83
2021/10/21 07:45:19;;;;;;;24.17;16.50;;;435.30;2355.20;;;;;;5072252;28;20036;-82
2021/10/21 07:47:44;;;;;;;22.70;16.80;;;435.70;2355.20;;;;;;5055717;28;20025;-83
2021/10/21 07:50:11;;;;;;;22.95;15.68;;;435.90;2355.20;;;;;;5069301;28;20029;-83
2021/10/21 07:52:38;;;;;;;22.75;16.42;;;461.00;2380.80;;;;;;5073542;28;20162;-82
2021/10/21 07:55:06;;;;;;;18.88;15.15;;;461.30;2380.80;;;;;;5054295;28;20016;-82
2021/10/21 07:57:32;;;;;;;21.15;15.43;;;461.50;2380.80;;;;;;5071422;28;20039;-82
2021/10/21 07:59:58;;;;;;;22.35;14.95;;;461.70;2380.80;;;;;;5055093;28;20528;-82
2021/10/21 08:02:24;;;;;;;19.02;12.93;;;486.60;2380.80;;;;;;5072154;28;20099;-83
2021/10/21 08:04:49;;;;;;;20.35;14.32;;;486.70;2380.80;;;;;;5054361;28;20480;-82
2021/10/21 08:07:15;;;;;;;19.98;13.48;;;486.60;2380.80;;;;;;5054451;28;20024;-82
2021/10/21 08:09:41;;;;;;;26.85;14.23;;;486.60;2380.80;;;;;;5054364;28;20036;-82
2021/10/21 08:12:08;;;;;;;16.00;12.65;;;486.50;2380.80;;;;;;5054750;28;20031;-83
2021/10/21 08:14:34;;;;;;;17.55;14.15;;;486.80;2380.80;;;;;;5074155;28;20100;-82
2021/10/21 08:17:00;;;;;;;19.27;14.43;;;486.90;2380.80;;;;;;5072188;28;20041;-82
2021/10/21 08:19:26;;;;;;;17.48;14.15;;;487.20;2380.80;;;;;;5054355;28;20426;-82
2021/10/21 08:21:52;;;;;;;20.55;13.88;;;512.10;2380.80;;;;;;5068524;28;20086;-82
2021/10/21 08:24:19;;;;;;;19.63;14.77;;;512.40;2380.80;;;;;;5052859;28;20032;-82
2021/10/21 08:26:49;;;;;;;20.27;12.85;;;512.80;2380.80;;;;;;5047220;28;20108;-82
2021/10/21 08:29:17;;;;;;;17.13;12.38;;;512.70;2380.80;;;;;;5071234;28;20051;-82
2021/10/21 08:31:44;;;;;;;25.02;11.70;;;512.90;2380.80;;;;;;5071960;28;20012;-82
2021/10/21 08:34:10;;;;;;;23.30;15.15;;;537.80;2406.40;;;;;;5054036;28;20016;-82
2021/10/21 08:36:36;;;;;;;18.90;13.27;;;538.10;2406.40;;;;;;5054030;28;20116;-82
2021/10/21 08:39:05;;;;;;;15.52;11.48;;;538.30;2406.40;;;;;;5071462;28;20086;-82
2021/10/21 08:41:31;;;;;;;14.93;11.30;;;538.50;2406.40;;;;;;5052820;28;20024;-82
2021/10/21 08:43:56;;;;;;;14.15;10.52;;;563.30;2432.00;;;;;;5071252;28;20555;-82
2021/10/21 08:46:26;;;;;;;16.27;11.35;;;563.70;2432.00;;;;;;5053188;28;20062;-82
2021/10/21 08:49:01;;;;;;;13.45;11.27;;;564.00;2432.00;;;;;;5053823;28;20031;-82
2021/10/21 08:51:29;;;;;;;15.05;10.98;;;588.90;2432.00;;;;;;5057272;28;20025;-82
2021/10/21 08:53:54;;;;;;;17.75;11.98;;;589.10;2432.00;;;;;;5053839;28;20017;-82
2021/10/21 08:56:25;;;;;;;16.75;11.23;;;589.70;2432.00;;;;;;5052197;28;20404;-82
2021/10/21 08:58:55;;;;;;;17.00;12.85;;;589.50;2432.00;;;;;;5041891;28;20502;-81
2021/10/21 09:01:30;;;;;;;17.65;13.10;;;589.20;2432.00;;;;;;5053763;28;20542;-82
2021/10/21 09:07:55;;;;;;;16.00;11.15;;;588.90;2432.00;;;;;;5071518;28;20024;-81
2021/10/21 09:09:42;;;;;;;16.60;12.27;;;588.80;2432.00;;;;;;5071902;28;20498;-81
2021/10/21 09:12:13;;;;;;;15.35;11.43;;;589.20;2432.00;;;;;;5071775;28;20031;-82
2021/10/21 09:14:50;;;;;;;15.82;12.13;;;589.70;2406.40;;;;;;5054328;28;20028;-81
2021/10/21 09:17:19;;;;;;;18.23;12.05;;;614.60;2380.80;;;;;;5078743;28;20113;-79
2021/10/21 09:19:46;;;;;;;19.67;12.73;;;614.90;2304.00;;;;;;5063772;28;20032;-79
2021/10/21 09:22:27;;;;;;;18.58;13.65;;;640.10;2278.40;;;;;;5077715;28;20067;-82
2021/10/21 09:24:55;;;;;;;18.83;13.75;;;640.10;2227.20;;;;;;5053914;28;20020;-81
2021/10/21 09:27:24;;;;;;;17.63;13.10;;;640.50;2150.40;;;;;;5053347;28;20237;-82
2021/10/21 09:29:54;;;;;;;14.93;11.98;;;640.30;2176.00;;;;;;5053604;28;20025;-82
2021/10/21 09:32:27;;;;;;;18.17;11.68;;;640.10;2150.40;;;;;;5071336;28;20096;-82
2021/10/21 09:34:55;;;;;;;25.27;13.77;;;615.20;2176.00;;;;;;5071893;28;20611;-82
2021/10/21 09:37:21;;;;;;;27.95;15.70;;;615.20;2176.00;;;;;;5053494;28;20509;-82
2021/10/21 09:40:11;;;;;;;21.42;13.27;;;614.80;2201.60;;;;;;5053962;28;20058;-82
2021/10/21 09:42:40;;;;;;;15.55;10.80;;;614.40;2252.80;;;;;;5068208;28;20025;-82
2021/10/21 09:45:18;;;;;;;18.10;12.93;;;614.70;2252.80;;;;;;5073848;28;20471;-82
2021/10/21 09:47:56;;;;;;;17.67;11.95;;;615.30;2201.60;;;;;;5057563;28;20051;-82
2021/10/21 09:50:45;;;;;;;14.45;11.90;;;640.40;2099.20;;;;;;5057502;28;20131;-84
2021/10/21 09:53:22;;;;;;;17.75;13.18;;;665.80;2048.00;;;;;;5047542;28;20012;-82
2021/10/21 09:56:00;;;;;;;22.13;13.85;;;665.60;2022.40;;;;;;5075397;28;20017;-83
2021/10/21 09:58:27;;;;;;;18.00;12.70;;;666.10;1996.80;;;;;;5056906;28;20145;-81
2021/10/21 10:01:08;;;;;;;17.98;12.55;;;691.70;1894.40;;;;;;5053418;28;20060;-82
2021/10/21 10:03:37;;;;;;;15.82;12.55;;;716.90;1868.80;;;;;;5071525;28;20008;-82
2021/10/21 10:06:03;;;;;;;34.55;20.52;;;716.90;1766.40;;;;;;5068783;28;20024;-81
2021/10/21 10:08:30;;;;;;;18.17;11.65;;;717.10;1689.60;;;;;;5052892;28;20054;-81
2021/10/21 10:11:01;;;;;;;24.10;11.68;;;717.10;1715.20;;;;;;5072706;28;20975;-80
2021/10/21 10:13:28;;;;;;;11.93;8.63;;;717.00;1664.00;;;;;;5051832;28;20082;-82
2021/10/21 10:15:55;;;;;;;15.30;9.82;;;716.80;1638.40;;;;;;5055179;28;20045;-81
2021/10/21 10:18:26;;;;;;;15.23;8.82;;;717.50;1612.80;;;;;;5054073;28;20116;-83
2021/10/21 10:21:09;;;;;;;14.75;7.78;;;742.70;1536.00;;;;;;5064562;28;20032;-84
2021/10/21 10:23:49;;;;;;;11.98;7.15;;;717.00;1536.00;;;;;;5070681;28;20032;-84
2021/10/21 10:26:47;;;;;;;14.73;10.10;;;692.00;1510.40;;;;;;5050476;28;20409;-82
2021/10/21 10:29:18;;;;;;;15.32;10.65;;;691.70;1561.60;;;;;;5072579;28;20021;-87
2021/10/21 10:31:55;;;;;;;16.45;11.07;;;692.10;1561.60;;;;;;5055629;28;20021;-90
2021/10/21 10:34:33;;;;;;;16.48;9.43;;;717.20;1536.00;;;;;;5054067;28;20032;-83
2021/10/21 10:37:16;;;;;;;15.55;9.30;;;717.20;1536.00;;;;;;5068631;28;20103;-85
2021/10/21 10:39:45;;;;;;;11.73;9.45;;;717.10;1536.00;;;;;;5069152;28;20032;-83
2021/10/21 10:42:13;;;;;;;11.70;8.40;;;717.00;1536.00;;;;;;5055241;28;20499;-83
2021/10/21 10:44:39;;;;;;;12.40;9.73;;;717.00;1484.80;;;;;;5070068;28;20039;-84
2021/10/21 10:47:09;;;;;;;10.77;8.02;;;717.40;1484.80;;;;;;5053964;28;20122;-83
2021/10/21 10:49:40;;;;;;;11.48;7.78;;;717.40;1459.20;;;;;;5054664;28;20029;-82
2021/10/21 10:52:15;;;;;;;13.77;6.05;;;692.00;1433.60;;;;;;5056880;28;20425;-82
2021/10/21 10:54:44;;;;;;;8.48;6.45;;;691.90;1408.00;;;;;;5070342;28;20025;-83
2021/10/21 10:57:30;;;;;;;6.65;5.47;;;691.90;1433.60;;;;;;5053235;28;20028;-84
2021/10/21 10:59:56;;;;;;;;;;;691.80;1408.00;;;;;;5040683;28;20064;-83
2021/10/21 11:02:25;;;;;;;7.32;5.78;;;691.50;1459.20;;;;;;5053313;28;19943;-83
2021/10/21 11:04:54;;;;;;;11.32;7.88;;;691.90;1408.00;;;;;;5054319;28;20115;-78
2021/10/21 11:07:28;;;;;;;9.63;6.03;;;717.10;1433.60;;;;;;5083943;28;20020;-80
2021/10/21 11:10:37;;;;;;;11.85;6.70;;;691.80;1408.00;;;;;;5061205;28;20070;-83
2021/10/21 11:13:26;;;;;;;10.32;7.18;;;691.80;1433.60;;;;;;4997563;28;20554;-84
2021/10/21 11:15:54;;;;;;;9.77;6.57;;;692.00;1408.00;;;;;;5009304;28;20054;-85
2021/10/21 11:18:44;;;;;;;8.32;6.30;;;716.90;1433.60;;;;;;5013979;28;20057;-84
2021/10/21 11:21:52;;;;;;;9.52;6.55;;;717.10;1408.00;;;;;;4997233;28;20053;-84
2021/10/21 11:24:45;;;;;;;8.65;6.22;;;717.50;1382.40;;;;;;5011707;28;20034;-84
2021/10/21 11:27:12;;;;;;;7.72;5.03;;;742.40;1382.40;;;;;;4990081;28;20030;-84
2021/10/21 11:29:39;;;;;;;8.05;5.97;;;717.30;1356.80;;;;;;5004567;28;20025;-83
2021/10/21 11:32:10;;;;;;;11.05;6.22;;;691.90;1356.80;;;;;;5011814;28;20086;-82
2021/10/21 11:34:36;;;;;;;7.22;5.88;;;666.40;1408.00;;;;;;5012572;28;20034;-81
2021/10/21 11:37:03;;;;;;;8.63;5.35;;;666.20;1408.00;;;;;;5011582;28;20038;-81
2021/10/21 11:39:39;;;;;;;9.10;5.45;;;666.00;1433.60;;;;;;4997249;28;20036;-81
2021/10/21 11:42:10;;;;;;;8.77;5.28;;;666.50;1382.40;;;;;;4995017;28;20030;-82
2021/10/21 11:44:37;;;;;;;12.02;6.57;;;666.50;1408.00;;;;;;5008107;28;20113;-83
2021/10/21 11:47:05;;;;;;;9.57;5.72;;;691.30;1408.00;;;;;;5018944;28;20026;-82
2021/10/21 11:49:35;;;;;;;8.27;5.07;;;691.50;1408.00;;;;;;5032535;28;20175;-82
2021/10/21 11:52:09;;;;;;;5.78;4.38;;;691.80;1382.40;;;;;;5045989;28;20430;-82
2021/10/21 11:54:37;;;;;;;6.15;4.85;;;666.30;1408.00;;;;;;5070897;28;20024;-80
2021/10/21 11:57:04;;;;;;;8.32;5.43;;;666.30;1408.00;;;;;;5051569;28;20025;-82
2021/10/21 11:59:42;;;;;;;8.13;5.28;;;666.10;1433.60;;;;;;5054593;28;20450;-83
2021/10/21 12:02:13;;;;;;;8.07;5.53;;;665.90;1459.20;;;;;;5071523;28;20028;-81
2021/10/21 12:04:42;;;;;;;7.97;6.28;;;640.60;1433.60;;;;;;5070271;28;20074;-82
2021/10/21 12:07:09;;;;;;;10.82;6.15;;;640.40;1459.20;;;;;;5072288;28;20373;-82
2021/10/21 12:09:36;;;;;;;8.80;6.13;;;640.30;1484.80;;;;;;5054787;28;20025;-80